WAT7787 VDPP-VTSM
Flight info
| Callsign | WAT7787 |
|---|---|
| Flight time | 0h 53m |
| Altitude | 36000 |
| Route | AKATA2 KOS DCT EMELA DCT UPNEP |
| Aircraft | A320/M-SDE3FGHIRWY/LB1 |
Departure
| Time | 2026-04-26 17:40 |
|---|---|
| Airport | Phnom Penh International Airport (VDPP) |
Arrival
| Time | 2026-04-26 18:33 |
|---|---|
| Airport | Samui International Airport (VTSM) |
| Time | Latitude | Longitude | Altitude | Speed | Heading |
|---|---|---|---|---|---|
| 2026-04-26 17:26 | 11.55261 | 104.84638 | 41 ft | 0 kts | 307° |
| 2026-04-26 17:28 | 11.55261 | 104.84639 | 40 ft | 0 kts | 307° |
| 2026-04-26 17:34 | 11.55254 | 104.84649 | 43 ft | 4 kts | 322° |
| 2026-04-26 17:34 | 11.55231 | 104.84656 | 40 ft | 4 kts | 7° |
| 2026-04-26 17:35 | 11.55216 | 104.84654 | 38 ft | 1 kts | 7° |
| 2026-04-26 17:35 | 11.55214 | 104.84654 | 38 ft | 0 kts | 7° |
| 2026-04-26 17:37 | 11.55222 | 104.84658 | 40 ft | 6 kts | 30° |
| 2026-04-26 17:37 | 11.55237 | 104.84703 | 40 ft | 6 kts | 90° |
| 2026-04-26 17:37 | 11.55214 | 104.84766 | 40 ft | 16 kts | 127° |
| 2026-04-26 17:38 | 11.55149 | 104.84922 | 40 ft | 15 kts | 50° |
| 2026-04-26 17:38 | 11.55238 | 104.85016 | 41 ft | 22 kts | 45° |
| 2026-04-26 17:38 | 11.55363 | 104.85145 | 37 ft | 27 kts | 45° |
| 2026-04-26 17:38 | 11.55489 | 104.85276 | 40 ft | 22 kts | 46° |
| 2026-04-26 17:39 | 11.55583 | 104.85330 | 39 ft | 15 kts | 27° |
| 2026-04-26 17:39 | 11.55581 | 104.85368 | 39 ft | 8 kts | 198° |
| 2026-04-26 17:39 | 11.55439 | 104.85224 | 40 ft | 63 kts | 225° |
| 2026-04-26 17:39 | 11.54967 | 104.84736 | 43 ft | 127 kts | 225° |
| 2026-04-26 17:40 | 11.54227 | 104.83970 | 67 ft | 172 kts | 226° |
| 2026-04-26 17:40 | 11.53687 | 104.83400 | 553 ft | 165 kts | 225° |
| 2026-04-26 17:40 | 11.52694 | 104.82226 | 1532 ft | 162 kts | 229° |
| 2026-04-26 17:40 | 11.51962 | 104.81316 | 2001 ft | 176 kts | 229° |
| 2026-04-26 17:41 | 11.51149 | 104.80287 | 2307 ft | 195 kts | 229° |
| 2026-04-26 17:41 | 11.50254 | 104.79149 | 2592 ft | 219 kts | 229° |
| 2026-04-26 17:41 | 11.49255 | 104.77893 | 3097 ft | 234 kts | 229° |
| 2026-04-26 17:41 | 11.48202 | 104.76597 | 3672 ft | 248 kts | 228° |
| 2026-04-26 17:42 | 11.47069 | 104.75216 | 4336 ft | 258 kts | 229° |
| 2026-04-26 17:42 | 11.45913 | 104.73781 | 5103 ft | 264 kts | 230° |
| 2026-04-26 17:42 | 11.44766 | 104.72307 | 5967 ft | 266 kts | 231° |
| 2026-04-26 17:42 | 11.43606 | 104.70813 | 6758 ft | 271 kts | 231° |
| 2026-04-26 17:43 | 11.42424 | 104.69301 | 7510 ft | 275 kts | 231° |
| 2026-04-26 17:43 | 11.41222 | 104.67774 | 8304 ft | 277 kts | 231° |
| 2026-04-26 17:43 | 11.40006 | 104.66239 | 9111 ft | 279 kts | 230° |
| 2026-04-26 17:43 | 11.38776 | 104.64697 | 9848 ft | 285 kts | 230° |
| 2026-04-26 17:44 | 11.37476 | 104.63088 | 10196 ft | 304 kts | 230° |
| 2026-04-26 17:44 | 11.36080 | 104.61366 | 10396 ft | 327 kts | 230° |
| 2026-04-26 17:44 | 11.34597 | 104.59537 | 10797 ft | 340 kts | 230° |
| 2026-04-26 17:44 | 11.33084 | 104.57662 | 11432 ft | 345 kts | 230° |
| 2026-04-26 17:45 | 11.31557 | 104.55755 | 12107 ft | 348 kts | 231° |
| 2026-04-26 17:45 | 11.30020 | 104.53834 | 12784 ft | 351 kts | 231° |
| 2026-04-26 17:45 | 11.28493 | 104.51926 | 13445 ft | 354 kts | 231° |
| 2026-04-26 17:45 | 11.26930 | 104.49975 | 14062 ft | 357 kts | 231° |
| 2026-04-26 17:46 | 11.25355 | 104.48009 | 14626 ft | 360 kts | 231° |
| 2026-04-26 17:46 | 11.23768 | 104.46027 | 15177 ft | 363 kts | 231° |
| 2026-04-26 17:46 | 11.22170 | 104.44025 | 15721 ft | 366 kts | 231° |
| 2026-04-26 17:46 | 11.20565 | 104.42002 | 16273 ft | 369 kts | 231° |
| 2026-04-26 17:47 | 11.18950 | 104.39954 | 16812 ft | 372 kts | 231° |
| 2026-04-26 17:47 | 11.17854 | 104.38562 | 17175 ft | 374 kts | 231° |
| 2026-04-26 17:47 | 11.15690 | 104.35810 | 17885 ft | 378 kts | 231° |
| 2026-04-26 17:47 | 11.14039 | 104.33714 | 18372 ft | 381 kts | 231° |
| 2026-04-26 17:48 | 11.12374 | 104.31602 | 18814 ft | 384 kts | 231° |
| 2026-04-26 17:48 | 11.10691 | 104.29469 | 19252 ft | 387 kts | 231° |
| 2026-04-26 17:48 | 11.08997 | 104.27323 | 19679 ft | 391 kts | 231° |
| 2026-04-26 17:48 | 11.07286 | 104.25157 | 20091 ft | 394 kts | 231° |
| 2026-04-26 17:49 | 11.05560 | 104.22972 | 20515 ft | 398 kts | 231° |
| 2026-04-26 17:49 | 11.03817 | 104.20772 | 20935 ft | 401 kts | 231° |
| 2026-04-26 17:49 | 11.02058 | 104.18552 | 21333 ft | 405 kts | 231° |
| 2026-04-26 17:49 | 11.00286 | 104.16311 | 21733 ft | 408 kts | 231° |
| 2026-04-26 17:50 | 10.98499 | 104.14054 | 22130 ft | 411 kts | 231° |
| 2026-04-26 17:50 | 10.96696 | 104.11779 | 22527 ft | 415 kts | 231° |
| 2026-04-26 17:50 | 10.94878 | 104.09486 | 22916 ft | 418 kts | 231° |
| 2026-04-26 17:50 | 10.93046 | 104.07175 | 23321 ft | 421 kts | 231° |
| 2026-04-26 17:51 | 10.91200 | 104.04848 | 23666 ft | 424 kts | 231° |
| 2026-04-26 17:51 | 10.89342 | 104.02504 | 23995 ft | 427 kts | 231° |
| 2026-04-26 17:51 | 10.87475 | 104.00145 | 24332 ft | 429 kts | 231° |
| 2026-04-26 17:51 | 10.85593 | 103.97768 | 24672 ft | 432 kts | 231° |
| 2026-04-26 17:52 | 10.83708 | 103.95391 | 25006 ft | 434 kts | 231° |
| 2026-04-26 17:52 | 10.81804 | 103.92993 | 25347 ft | 436 kts | 231° |
| 2026-04-26 17:52 | 10.79921 | 103.90615 | 25672 ft | 438 kts | 231° |
| 2026-04-26 17:52 | 10.78004 | 103.88196 | 25986 ft | 440 kts | 231° |
| 2026-04-26 17:53 | 10.76053 | 103.85733 | 26309 ft | 443 kts | 231° |
| 2026-04-26 17:53 | 10.74113 | 103.83289 | 26606 ft | 446 kts | 231° |
| 2026-04-26 17:53 | 10.72160 | 103.80831 | 26905 ft | 448 kts | 231° |
| 2026-04-26 17:54 | 10.68248 | 103.75902 | 27506 ft | 453 kts | 231° |
| 2026-04-26 17:54 | 10.66264 | 103.73405 | 27795 ft | 455 kts | 231° |
| 2026-04-26 17:54 | 10.64270 | 103.70894 | 28104 ft | 458 kts | 231° |
| 2026-04-26 17:54 | 10.62266 | 103.68371 | 28397 ft | 460 kts | 232° |
| 2026-04-26 17:55 | 10.60474 | 103.65677 | 28682 ft | 461 kts | 242° |
| 2026-04-26 17:55 | 10.59135 | 103.62715 | 28970 ft | 462 kts | 251° |
| 2026-04-26 17:55 | 10.58294 | 103.59564 | 29256 ft | 463 kts | 261° |
| 2026-04-26 17:55 | 10.57818 | 103.56318 | 29546 ft | 465 kts | 263° |
| 2026-04-26 17:56 | 10.57354 | 103.53062 | 29832 ft | 467 kts | 263° |
| 2026-04-26 17:56 | 10.56401 | 103.46511 | 30312 ft | 470 kts | 263° |
| 2026-04-26 17:57 | 10.55428 | 103.39920 | 30799 ft | 473 kts | 263° |
| 2026-04-26 17:57 | 10.54940 | 103.36614 | 31041 ft | 474 kts | 263° |
| 2026-04-26 17:57 | 10.54452 | 103.33301 | 31277 ft | 475 kts | 263° |
| 2026-04-26 17:57 | 10.53966 | 103.29989 | 31611 ft | 473 kts | 262° |
| 2026-04-26 17:58 | 10.52532 | 103.20159 | 32723 ft | 467 kts | 262° |
| 2026-04-26 17:59 | 10.51585 | 103.13663 | 33480 ft | 463 kts | 262° |
| 2026-04-26 17:59 | 10.51109 | 103.10435 | 33826 ft | 461 kts | 263° |
| 2026-04-26 17:59 | 10.50635 | 103.07216 | 34131 ft | 460 kts | 263° |
| 2026-04-26 17:59 | 10.50160 | 103.03999 | 34416 ft | 459 kts | 263° |
| 2026-04-26 18:00 | 10.49687 | 103.00795 | 34690 ft | 458 kts | 263° |
| 2026-04-26 18:00 | 10.49214 | 102.97598 | 34954 ft | 457 kts | 263° |
| 2026-04-26 18:00 | 10.48743 | 102.94405 | 35215 ft | 457 kts | 263° |
| 2026-04-26 18:00 | 10.48271 | 102.91217 | 35470 ft | 456 kts | 263° |
| 2026-04-26 18:01 | 10.47799 | 102.88034 | 35720 ft | 455 kts | 263° |
| 2026-04-26 18:01 | 10.47328 | 102.84852 | 35835 ft | 455 kts | 263° |
| 2026-04-26 18:01 | 10.46398 | 102.78547 | 35860 ft | 449 kts | 263° |
| 2026-04-26 18:02 | 10.45628 | 102.73335 | 35861 ft | 450 kts | 263° |
| 2026-04-26 18:02 | 10.44538 | 102.65978 | 35861 ft | 451 kts | 263° |
| 2026-04-26 18:03 | 10.43603 | 102.59683 | 35861 ft | 451 kts | 263° |
| 2026-04-26 18:03 | 10.42676 | 102.53420 | 35861 ft | 451 kts | 263° |
| 2026-04-26 18:04 | 10.41736 | 102.47117 | 35864 ft | 451 kts | 263° |
| 2026-04-26 18:05 | 10.40319 | 102.37664 | 35867 ft | 451 kts | 263° |
| 2026-04-26 18:05 | 10.39376 | 102.31372 | 35872 ft | 450 kts | 263° |
| 2026-04-26 18:06 | 10.38436 | 102.25085 | 35869 ft | 450 kts | 263° |
| 2026-04-26 18:06 | 10.37505 | 102.18801 | 35871 ft | 450 kts | 263° |
| 2026-04-26 18:07 | 10.36567 | 102.12553 | 35870 ft | 450 kts | 263° |
| 2026-04-26 18:07 | 10.35613 | 102.06275 | 35872 ft | 450 kts | 263° |
| 2026-04-26 18:08 | 10.34672 | 101.99997 | 35869 ft | 450 kts | 263° |
| 2026-04-26 18:08 | 10.33727 | 101.93714 | 35796 ft | 450 kts | 263° |
| 2026-04-26 18:08 | 10.33252 | 101.90577 | 35557 ft | 449 kts | 263° |
| 2026-04-26 18:09 | 10.32776 | 101.87444 | 35319 ft | 447 kts | 263° |
| 2026-04-26 18:09 | 10.32305 | 101.84328 | 35085 ft | 446 kts | 263° |
| 2026-04-26 18:09 | 10.31835 | 101.81215 | 34853 ft | 444 kts | 263° |
| 2026-04-26 18:09 | 10.31367 | 101.78125 | 34623 ft | 443 kts | 263° |
| 2026-04-26 18:10 | 10.30897 | 101.75038 | 34403 ft | 442 kts | 263° |
| 2026-04-26 18:10 | 10.30427 | 101.71954 | 34169 ft | 440 kts | 263° |
| 2026-04-26 18:10 | 10.29961 | 101.68885 | 33945 ft | 439 kts | 263° |
| 2026-04-26 18:10 | 10.29500 | 101.65833 | 33668 ft | 436 kts | 263° |
| 2026-04-26 18:11 | 10.29043 | 101.62791 | 33145 ft | 434 kts | 263° |
| 2026-04-26 18:11 | 10.28593 | 101.59811 | 32633 ft | 431 kts | 263° |
| 2026-04-26 18:11 | 10.28137 | 101.56808 | 32113 ft | 429 kts | 263° |
| 2026-04-26 18:11 | 10.27681 | 101.53812 | 31599 ft | 428 kts | 263° |
| 2026-04-26 18:12 | 10.27227 | 101.50828 | 31095 ft | 426 kts | 263° |
| 2026-04-26 18:12 | 10.26776 | 101.47868 | 30598 ft | 424 kts | 263° |
| 2026-04-26 18:12 | 10.26325 | 101.44913 | 30110 ft | 423 kts | 263° |
| 2026-04-26 18:12 | 10.25873 | 101.41969 | 29578 ft | 421 kts | 262° |
| 2026-04-26 18:13 | 10.25423 | 101.39039 | 29109 ft | 417 kts | 262° |
| 2026-04-26 18:13 | 10.24982 | 101.36136 | 28638 ft | 413 kts | 262° |
| 2026-04-26 18:13 | 10.24546 | 101.33267 | 28190 ft | 409 kts | 262° |
| 2026-04-26 18:13 | 10.24405 | 101.32341 | 28044 ft | 408 kts | 262° |
| 2026-04-26 18:14 | 10.23679 | 101.27596 | 27283 ft | 403 kts | 262° |
| 2026-04-26 18:14 | 10.23252 | 101.24832 | 26840 ft | 400 kts | 262° |
| 2026-04-26 18:14 | 10.22823 | 101.22049 | 26371 ft | 398 kts | 262° |
| 2026-04-26 18:14 | 10.22398 | 101.19281 | 25917 ft | 396 kts | 262° |
| 2026-04-26 18:15 | 10.21979 | 101.16523 | 25443 ft | 395 kts | 262° |
| 2026-04-26 18:15 | 10.21374 | 101.13814 | 24964 ft | 394 kts | 251° |
| 2026-04-26 18:15 | 10.20241 | 101.11295 | 24478 ft | 392 kts | 238° |
| 2026-04-26 18:15 | 10.18635 | 101.09057 | 23984 ft | 391 kts | 230° |
| 2026-04-26 18:16 | 10.16905 | 101.06925 | 23491 ft | 391 kts | 229° |
| 2026-04-26 18:16 | 10.13450 | 101.02662 | 22436 ft | 389 kts | 230° |
| 2026-04-26 18:16 | 10.11740 | 101.00540 | 21966 ft | 386 kts | 230° |
| 2026-04-26 18:17 | 10.10043 | 100.98433 | 21488 ft | 385 kts | 230° |
| 2026-04-26 18:17 | 10.08352 | 100.96336 | 21019 ft | 383 kts | 230° |
| 2026-04-26 18:17 | 10.06666 | 100.94250 | 20547 ft | 382 kts | 230° |
| 2026-04-26 18:17 | 10.04984 | 100.92172 | 20083 ft | 380 kts | 230° |
| 2026-04-26 18:18 | 10.03310 | 100.90101 | 19614 ft | 379 kts | 230° |
| 2026-04-26 18:18 | 10.01661 | 100.88060 | 19185 ft | 377 kts | 230° |
| 2026-04-26 18:18 | 10.00001 | 100.86003 | 18713 ft | 377 kts | 230° |
| 2026-04-26 18:18 | 9.98354 | 100.83959 | 18438 ft | 371 kts | 231° |
| 2026-04-26 18:19 | 9.96726 | 100.81938 | 18005 ft | 369 kts | 231° |
| 2026-04-26 18:19 | 9.95106 | 100.79928 | 17537 ft | 366 kts | 231° |
| 2026-04-26 18:19 | 9.93507 | 100.77943 | 16865 ft | 359 kts | 230° |
| 2026-04-26 18:19 | 9.91954 | 100.76019 | 16443 ft | 346 kts | 230° |
| 2026-04-26 18:20 | 9.90455 | 100.74167 | 16053 ft | 334 kts | 230° |
| 2026-04-26 18:20 | 9.88988 | 100.72355 | 15666 ft | 332 kts | 230° |
| 2026-04-26 18:20 | 9.88017 | 100.71156 | 15412 ft | 333 kts | 230° |
| 2026-04-26 18:20 | 9.87025 | 100.69930 | 15149 ft | 333 kts | 230° |
| 2026-04-26 18:21 | 9.85074 | 100.67521 | 14639 ft | 334 kts | 230° |
| 2026-04-26 18:21 | 9.83599 | 100.65702 | 14235 ft | 334 kts | 230° |
| 2026-04-26 18:21 | 9.82124 | 100.63881 | 13865 ft | 334 kts | 230° |
| 2026-04-26 18:21 | 9.80653 | 100.62067 | 13449 ft | 329 kts | 230° |
| 2026-04-26 18:22 | 9.79229 | 100.60305 | 13055 ft | 317 kts | 229° |
| 2026-04-26 18:22 | 9.77846 | 100.58592 | 12689 ft | 313 kts | 230° |
| 2026-04-26 18:22 | 9.76465 | 100.56883 | 12311 ft | 313 kts | 230° |
| 2026-04-26 18:22 | 9.75084 | 100.55176 | 11938 ft | 313 kts | 229° |
| 2026-04-26 18:23 | 9.73705 | 100.53471 | 11552 ft | 313 kts | 229° |
| 2026-04-26 18:23 | 9.72333 | 100.51758 | 11166 ft | 313 kts | 232° |
| 2026-04-26 18:23 | 9.71294 | 100.49818 | 10848 ft | 312 kts | 249° |
| 2026-04-26 18:23 | 9.70837 | 100.47678 | 10540 ft | 308 kts | 266° |
| 2026-04-26 18:24 | 9.70967 | 100.45559 | 10197 ft | 296 kts | 279° |
| 2026-04-26 18:24 | 9.71305 | 100.43513 | 9708 ft | 293 kts | 279° |
| 2026-04-26 18:24 | 9.71636 | 100.41483 | 9269 ft | 293 kts | 279° |
| 2026-04-26 18:24 | 9.71968 | 100.39436 | 8853 ft | 294 kts | 278° |
| 2026-04-26 18:25 | 9.72295 | 100.37417 | 8510 ft | 293 kts | 278° |
| 2026-04-26 18:25 | 9.72621 | 100.35399 | 8124 ft | 290 kts | 278° |
| 2026-04-26 18:25 | 9.72939 | 100.33426 | 7866 ft | 274 kts | 278° |
| 2026-04-26 18:25 | 9.73236 | 100.31586 | 7693 ft | 257 kts | 278° |
| 2026-04-26 18:26 | 9.73490 | 100.29818 | 7313 ft | 250 kts | 272° |
| 2026-04-26 18:26 | 9.73506 | 100.28079 | 6901 ft | 245 kts | 268° |
| 2026-04-26 18:26 | 9.73501 | 100.26358 | 6440 ft | 244 kts | 268° |
| 2026-04-26 18:26 | 9.73500 | 100.24661 | 6158 ft | 233 kts | 268° |
| 2026-04-26 18:27 | 9.73500 | 100.23068 | 6043 ft | 217 kts | 268° |
| 2026-04-26 18:27 | 9.73500 | 100.21591 | 5775 ft | 206 kts | 268° |
| 2026-04-26 18:27 | 9.73499 | 100.20151 | 5357 ft | 205 kts | 267° |
| 2026-04-26 18:27 | 9.73498 | 100.18702 | 4934 ft | 205 kts | 268° |
| 2026-04-26 18:28 | 9.73498 | 100.17240 | 4426 ft | 209 kts | 268° |
| 2026-04-26 18:28 | 9.73498 | 100.15762 | 3983 ft | 205 kts | 268° |
| 2026-04-26 18:28 | 9.73497 | 100.14325 | 3796 ft | 203 kts | 268° |
| 2026-04-26 18:28 | 9.73493 | 100.12891 | 3670 ft | 202 kts | 265° |
| 2026-04-26 18:29 | 9.73195 | 100.11540 | 3572 ft | 198 kts | 243° |
| 2026-04-26 18:29 | 9.72435 | 100.10393 | 3422 ft | 196 kts | 222° |
| 2026-04-26 18:29 | 9.71342 | 100.09611 | 3150 ft | 190 kts | 201° |
| 2026-04-26 18:29 | 9.70138 | 100.09070 | 2905 ft | 189 kts | 201° |
| 2026-04-26 18:30 | 9.68939 | 100.08524 | 2657 ft | 189 kts | 201° |
| 2026-04-26 18:30 | 9.67747 | 100.07979 | 2412 ft | 184 kts | 201° |
| 2026-04-26 18:30 | 9.66610 | 100.07456 | 2174 ft | 174 kts | 201° |
| 2026-04-26 18:30 | 9.65539 | 100.06964 | 1982 ft | 162 kts | 201° |
| 2026-04-26 18:31 | 9.64567 | 100.06516 | 1781 ft | 152 kts | 201° |
| 2026-04-26 18:31 | 9.63623 | 100.06081 | 1592 ft | 147 kts | 201° |
| 2026-04-26 18:31 | 9.62692 | 100.05673 | 1403 ft | 145 kts | 194° |
| 2026-04-26 18:31 | 9.61706 | 100.05568 | 1227 ft | 143 kts | 173° |
| 2026-04-26 18:32 | 9.60722 | 100.05671 | 1033 ft | 142 kts | 173° |
| 2026-04-26 18:32 | 9.59742 | 100.05768 | 845 ft | 142 kts | 172° |
| 2026-04-26 18:32 | 9.58759 | 100.05864 | 662 ft | 142 kts | 173° |
| 2026-04-26 18:32 | 9.57777 | 100.05958 | 465 ft | 141 kts | 172° |
| 2026-04-26 18:33 | 9.56800 | 100.06054 | 282 ft | 142 kts | 173° |
| 2026-04-26 18:33 | 9.55819 | 100.06151 | 85 ft | 142 kts | 172° |
| 2026-04-26 18:33 | 9.54870 | 100.06239 | 20 ft | 116 kts | 173° |
| 2026-04-26 18:33 | 9.54351 | 100.06293 | 22 ft | 49 kts | 174° |
| 2026-04-26 18:34 | 9.54060 | 100.06324 | 25 ft | 34 kts | 174° |
| 2026-04-26 18:34 | 9.53882 | 100.06316 | 27 ft | 19 kts | 182° |
| 2026-04-26 18:34 | 9.53885 | 100.06352 | 27 ft | 10 kts | 4° |
| 2026-04-26 18:34 | 9.54038 | 100.06330 | 24 ft | 29 kts | 352° |
| 2026-04-26 18:35 | 9.54247 | 100.06307 | 23 ft | 31 kts | 355° |
| 2026-04-26 18:35 | 9.54469 | 100.06286 | 23 ft | 33 kts | 354° |
| 2026-04-26 18:35 | 9.54701 | 100.06260 | 23 ft | 34 kts | 354° |
| 2026-04-26 18:35 | 9.54928 | 100.06241 | 21 ft | 20 kts | 355° |
| 2026-04-26 18:36 | 9.55012 | 100.06272 | 18 ft | 12 kts | 54° |
| 2026-04-26 18:36 | 9.55042 | 100.06341 | 16 ft | 11 kts | 88° |
| 2026-04-26 18:36 | 9.55042 | 100.06353 | 16 ft | 0 kts | 88° |